Time;durP1;ratioP1;P1;durP2;ratioP2;P2;SDS_P1;SDS_P2;PMS_P1;PMS_P2;Temp;Humidity;BMP_temperature;BMP_pressure;BME280_temperature;BME280_humidity;BME280_pressure;Samples;Min_cycle;Max_cycle;Signal;HPM_P1;HPM_P2
2023/12/24 00:01:09;;;;;;;4.53;1.02;;;;;;;2.40;100.00;99946.97;5013910;28;20501;-64
2023/12/24 00:03:37;;;;;;;3.70;1.10;;;;;;;2.38;100.00;99948.59;5014387;28;20038;-63
2023/12/24 00:06:02;;;;;;;3.72;1.05;;;;;;;2.37;100.00;99946.78;5013938;28;20033;-63
2023/12/24 00:08:31;;;;;;;3.90;0.93;;;;;;;2.36;100.00;99938.88;5014113;28;20519;-64
2023/12/24 00:10:57;;;;;;;4.05;1.10;;;;;;;2.35;100.00;99937.09;5014270;28;20042;-64
2023/12/24 00:13:23;;;;;;;4.10;1.00;;;;;;;2.33;100.00;99936.97;5013889;28;20092;-64
2023/12/24 00:15:48;;;;;;;3.80;1.00;;;;;;;2.33;100.00;99929.16;5013350;28;20042;-64
2023/12/24 00:18:14;;;;;;;4.87;0.90;;;;;;;2.32;100.00;99922.16;5013822;28;20040;-64
2023/12/24 00:20:39;;;;;;;3.30;0.70;;;;;;;2.32;100.00;99924.75;5013593;28;20364;-63
2023/12/24 00:23:07;;;;;;;3.30;0.70;;;;;;;2.31;100.00;99927.28;5013867;28;20045;-64
2023/12/24 00:25:34;;;;;;;4.28;0.90;;;;;;;2.31;100.00;99932.50;5012982;28;20026;-64
2023/12/24 00:27:59;;;;;;;3.10;0.75;;;;;;;2.32;100.00;99931.69;5013755;28;20049;-64
2023/12/24 00:30:28;;;;;;;3.70;0.80;;;;;;;2.31;100.00;99922.97;5000555;28;20088;-64
2023/12/24 00:32:54;;;;;;;5.95;0.90;;;;;;;2.32;100.00;99929.09;4994308;28;20065;-64
2023/12/24 00:35:20;;;;;;;3.40;0.70;;;;;;;2.34;100.00;99932.66;4994636;28;20674;-65
2023/12/24 00:37:46;;;;;;;3.30;0.88;;;;;;;2.34;100.00;99930.06;4999358;28;20062;-64
2023/12/24 00:40:12;;;;;;;3.50;0.80;;;;;;;2.35;100.00;99916.25;4993306;28;20034;-64
2023/12/24 00:42:39;;;;;;;3.10;0.70;;;;;;;2.35;100.00;99917.13;4994153;28;20027;-64
2023/12/24 00:45:05;;;;;;;3.55;0.90;;;;;;;2.33;100.00;99923.94;4993284;28;20038;-64
2023/12/24 00:47:31;;;;;;;3.97;1.00;;;;;;;2.33;100.00;99907.41;4992126;28;20042;-64
2023/12/24 00:49:56;;;;;;;5.55;1.00;;;;;;;2.34;100.00;99914.44;4992984;28;20038;-64
2023/12/24 00:52:21;;;;;;;3.93;0.93;;;;;;;2.35;100.00;99908.41;4993732;28;20095;-64
2023/12/24 00:54:47;;;;;;;3.33;0.93;;;;;;;2.37;100.00;99918.09;4992869;28;20629;-64
2023/12/24 00:57:14;;;;;;;3.30;0.80;;;;;;;2.37;100.00;99912.91;4993026;28;20067;-63
2023/12/24 00:59:39;;;;;;;4.53;1.10;;;;;;;2.40;100.00;99920.91;4999234;28;20490;-64
2023/12/24 01:02:05;;;;;;;4.07;1.10;;;;;;;2.37;100.00;99919.84;4994982;28;20117;-64
2023/12/24 01:04:30;;;;;;;4.00;1.20;;;;;;;2.38;100.00;99905.97;4992334;28;20113;-63
2023/12/24 01:06:55;;;;;;;4.43;1.00;;;;;;;2.40;100.00;99909.59;4993271;28;20030;-64
2023/12/24 01:09:21;;;;;;;4.27;1.10;;;;;;;2.38;100.00;99905.97;4992750;28;20118;-63
2023/12/24 01:11:47;;;;;;;3.70;0.85;;;;;;;2.37;100.00;99904.22;4992981;28;20141;-63
2023/12/24 01:14:12;;;;;;;4.23;1.00;;;;;;;2.37;100.00;99905.09;4992518;28;20046;-64
2023/12/24 01:16:41;;;;;;;4.30;1.08;;;;;;;2.36;100.00;99899.81;4991718;28;20491;-64
2023/12/24 01:19:07;;;;;;;4.03;1.03;;;;;;;2.35;100.00;99909.31;4992718;28;20521;-63
2023/12/24 01:21:33;;;;;;;4.93;1.10;;;;;;;2.37;100.00;99914.63;4992981;28;20038;-63
2023/12/24 01:23:58;;;;;;;4.10;1.20;;;;;;;2.34;100.00;99909.22;4992625;28;20035;-63
2023/12/24 01:26:24;;;;;;;3.87;1.00;;;;;;;2.35;100.00;99908.41;4991736;28;20395;-63
2023/12/24 01:28:49;;;;;;;4.23;1.20;;;;;;;2.33;100.00;99908.31;5005182;28;20101;-62
2023/12/24 01:31:14;;;;;;;4.10;0.90;;;;;;;2.33;100.00;99915.22;4992747;28;20419;-63
2023/12/24 01:33:40;;;;;;;3.77;0.80;;;;;;;2.34;100.00;99904.91;4992932;28;20030;-63
2023/12/24 01:36:05;;;;;;;4.17;1.20;;;;;;;2.29;100.00;99893.31;4992379;28;20053;-63
2023/12/24 01:38:31;;;;;;;3.80;1.00;;;;;;;2.29;100.00;99892.41;4992589;28;20057;-63
2023/12/24 01:40:56;;;;;;;4.82;1.30;;;;;;;2.31;100.00;99893.41;4992800;28;20042;-62
2023/12/24 01:43:22;;;;;;;3.30;0.80;;;;;;;2.33;100.00;99889.19;4991635;28;20064;-63
2023/12/24 01:45:48;;;;;;;4.23;1.10;;;;;;;2.35;100.00;99872.84;4997197;28;20042;-63
2023/12/24 01:48:15;;;;;;;3.58;0.90;;;;;;;2.34;100.00;99886.66;4996251;28;20406;-63
2023/12/24 01:50:43;;;;;;;4.00;1.13;;;;;;;2.37;100.00;99883.38;4997625;28;20035;-63
2023/12/24 01:53:10;;;;;;;4.53;1.00;;;;;;;2.37;100.00;99884.25;4993866;28;20037;-63
2023/12/24 01:55:35;;;;;;;4.50;1.33;;;;;;;2.36;100.00;99884.16;4998295;28;20030;-63
2023/12/24 01:58:01;;;;;;;4.63;1.33;;;;;;;2.38;100.00;99882.53;4991483;28;20410;-62
2023/12/24 02:00:26;;;;;;;5.07;1.60;;;;;;;2.37;100.00;99884.25;5000155;28;20081;-62
2023/12/24 02:02:54;;;;;;;4.57;1.50;;;;;;;2.35;100.00;99875.44;4990533;28;20026;-63
2023/12/24 02:05:19;;;;;;;5.60;1.80;;;;;;;2.35;100.00;99874.56;4991828;28;20039;-63
2023/12/24 02:07:47;;;;;;;5.33;1.40;;;;;;;2.36;100.00;99873.75;4991129;28;20041;-62
2023/12/24 02:10:13;;;;;;;5.38;1.35;;;;;;;2.36;100.00;99874.66;4991808;28;20042;-63
2023/12/24 02:12:39;;;;;;;5.38;1.50;;;;;;;2.35;100.00;99870.25;4990798;28;20395;-63
2023/12/24 02:15:05;;;;;;;4.80;1.50;;;;;;;2.38;100.00;99869.50;4990068;28;20042;-63
2023/12/24 02:17:32;;;;;;;6.53;1.67;;;;;;;2.39;100.00;99868.72;4991411;28;20475;-63
2023/12/24 02:19:58;;;;;;;4.47;1.42;;;;;;;2.37;100.00;99852.09;4991714;28;20034;-63
2023/12/24 02:22:23;;;;;;;5.43;1.40;;;;;;;2.38;100.00;99859.97;4991777;28;20073;-63
2023/12/24 02:24:48;;;;;;;5.80;1.65;;;;;;;2.36;100.00;99855.50;4990156;28;20058;-63
2023/12/24 02:27:33;;;;;;;4.93;2.13;;;;;;;2.36;100.00;99837.28;4996218;28;20040;-63
2023/12/24 02:30:05;;;;;;;9.20;1.60;;;;;;;2.38;100.00;99846.97;5002950;28;20445;-63
2023/12/24 02:32:33;;;;;;;5.80;1.45;;;;;;;2.38;100.00;99853.88;4991664;28;20463;-63
2023/12/24 02:35:02;;;;;;;4.30;1.47;;;;;;;2.37;100.00;99833.88;4990789;28;20409;-63
2023/12/24 02:37:29;;;;;;;4.65;1.20;;;;;;;2.41;100.00;99859.28;4991368;28;20034;-63
2023/12/24 02:39:54;;;;;;;6.82;1.30;;;;;;;2.36;100.00;99861.63;4991396;28;20042;-63
2023/12/24 02:42:19;;;;;;;4.27;1.13;;;;;;;2.38;100.00;99846.06;4991302;28;20049;-63
2023/12/24 02:44:45;;;;;;;4.33;1.17;;;;;;;2.37;100.00;99839.06;4990010;28;20138;-63
2023/12/24 02:47:10;;;;;;;3.78;1.00;;;;;;;2.36;100.00;99868.53;4990997;28;20047;-63
2023/12/24 02:49:35;;;;;;;4.07;1.17;;;;;;;2.31;100.00;99851.72;4991104;28;20049;-63
2023/12/24 02:52:01;;;;;;;3.60;0.80;;;;;;;2.34;100.00;99849.28;4991291;28;20375;-63
2023/12/24 02:54:26;;;;;;;4.07;1.20;;;;;;;2.32;100.00;99843.97;4989539;28;20124;-62
2023/12/24 02:56:52;;;;;;;3.70;0.83;;;;;;;2.34;100.00;99825.84;4990926;28;20399;-63
2023/12/24 02:59:17;;;;;;;3.23;0.60;;;;;;;2.33;100.00;99824.03;4994041;28;20038;-63
2023/12/24 03:01:42;;;;;;;2.50;0.47;;;;;;;2.32;100.00;99812.72;4995749;28;20369;-63
2023/12/24 03:04:08;;;;;;;3.13;0.70;;;;;;;2.34;100.00;99798.09;4989441;28;20046;-63
2023/12/24 03:06:33;;;;;;;2.93;0.60;;;;;;;2.31;100.00;99803.13;4990142;28;20045;-63
2023/12/24 03:08:58;;;;;;;2.83;0.60;;;;;;;2.30;100.00;99800.44;4989075;28;20073;-63
2023/12/24 03:11:25;;;;;;;3.17;0.83;;;;;;;2.30;100.00;99796.13;4990641;28;20067;-63
2023/12/24 03:13:50;;;;;;;3.10;0.70;;;;;;;2.28;100.00;99789.91;4990722;28;20297;-62
2023/12/24 03:16:17;;;;;;;2.87;0.60;;;;;;;2.28;100.00;99792.50;5021642;28;20563;-63
2023/12/24 03:18:42;;;;;;;3.33;0.67;;;;;;;2.31;100.00;99786.59;4989604;28;20337;-63
2023/12/24 03:21:07;;;;;;;3.20;0.60;;;;;;;2.26;100.00;99783.72;4989957;28;20046;-63
2023/12/24 03:23:33;;;;;;;2.97;0.57;;;;;;;2.27;100.00;99780.28;4991236;28;20277;-63
2023/12/24 03:25:58;;;;;;;3.07;0.80;;;;;;;2.28;100.00;99769.06;4990450;28;20113;-63
2023/12/24 03:28:23;;;;;;;2.60;0.60;;;;;;;2.33;100.00;99777.16;5006431;28;20091;-64
2023/12/24 03:30:49;;;;;;;2.33;0.40;;;;;;;2.35;100.00;99775.53;4995768;28;20030;-62
2023/12/24 03:33:14;;;;;;;2.92;0.60;;;;;;;2.36;100.00;99764.31;4990833;28;20494;-63
2023/12/24 03:35:41;;;;;;;3.10;0.50;;;;;;;2.38;100.00;99760.06;4988861;28;20490;-61
2023/12/24 03:38:08;;;;;;;3.05;0.60;;;;;;;2.42;100.00;99759.44;5003596;28;20058;-64
2023/12/24 03:40:33;;;;;;;2.37;0.40;;;;;;;2.43;100.00;99750.81;4990380;28;20475;-63
2023/12/24 03:42:58;;;;;;;2.23;0.40;;;;;;;2.44;100.00;99745.69;4990652;28;20110;-63
2023/12/24 03:45:24;;;;;;;2.60;0.40;;;;;;;2.48;100.00;99745.03;4990500;28;20410;-63
2023/12/24 03:47:49;;;;;;;2.40;0.50;;;;;;;2.48;100.00;99751.97;4990370;28;20097;-63
2023/12/24 03:50:15;;;;;;;2.50;0.60;;;;;;;2.48;100.00;99749.38;4988953;28;20277;-63
2023/12/24 03:52:40;;;;;;;2.90;0.50;;;;;;;2.53;100.00;99747.91;4997569;28;20069;-64
2023/12/24 03:55:05;;;;;;;2.40;0.50;;;;;;;2.57;100.00;99742.06;4990421;28;20122;-63
2023/12/24 03:57:31;;;;;;;2.45;0.40;;;;;;;2.63;100.00;99737.19;4989096;28;20038;-63
2023/12/24 03:59:57;;;;;;;3.00;0.50;;;;;;;2.66;100.00;99745.22;4997235;28;20029;-63
2023/12/24 04:02:24;;;;;;;2.10;0.40;;;;;;;2.65;100.00;99740.78;4989785;28;20188;-66
2023/12/24 04:04:50;;;;;;;2.15;0.47;;;;;;;2.64;100.00;99735.47;4996732;28;20038;-64
2023/12/24 04:07:16;;;;;;;2.88;0.63;;;;;;;2.63;100.00;99725.88;5000620;28;20383;-63
2023/12/24 04:09:42;;;;;;;4.43;0.70;;;;;;;2.64;100.00;99736.38;5004720;28;20053;-63
2023/12/24 04:12:08;;;;;;;3.42;0.70;;;;;;;2.61;100.00;99733.63;4991787;28;20186;-63
2023/12/24 04:14:36;;;;;;;5.95;0.80;;;;;;;2.59;100.00;99730.03;5018096;28;20096;-63
2023/12/24 04:17:02;;;;;;;3.35;0.75;;;;;;;2.59;100.00;99730.03;4997476;28;20125;-64
2023/12/24 04:19:27;;;;;;;4.87;1.10;;;;;;;2.61;100.00;99724.06;4990107;28;20138;-63
2023/12/24 04:21:53;;;;;;;3.93;0.87;;;;;;;2.60;100.00;99724.91;4993318;28;20116;-63
2023/12/24 04:24:18;;;;;;;4.30;1.20;;;;;;;2.59;100.00;99720.50;4998008;28;20092;-63
2023/12/24 04:26:43;;;;;;;5.53;1.60;;;;;;;2.62;100.00;99714.53;4988857;28;20299;-63
2023/12/24 04:29:09;;;;;;;6.20;2.00;;;;;;;2.60;100.00;99710.97;4988479;28;20487;-63
2023/12/24 04:31:39;;;;;;;5.93;1.60;;;;;;;2.59;100.00;99702.25;5019957;28;20037;-63
2023/12/24 04:34:08;;;;;;;5.60;1.60;;;;;;;2.58;100.00;99700.44;4991667;28;20495;-62
2023/12/24 04:36:34;;;;;;;5.22;1.52;;;;;;;2.58;100.00;99691.72;4989911;28;20035;-62
2023/12/24 04:38:59;;;;;;;6.43;2.00;;;;;;;2.60;100.00;99687.50;4998588;28;20041;-64
2023/12/24 04:41:28;;;;;;;5.70;1.90;;;;;;;2.61;100.00;99686.69;5008157;28;20026;-62
2023/12/24 04:43:56;;;;;;;5.85;1.85;;;;;;;2.64;100.00;99678.13;5006967;28;20038;-62
2023/12/24 04:46:22;;;;;;;6.22;1.92;;;;;;;2.67;100.00;99683.50;5002349;28;20028;-63
2023/12/24 04:48:48;;;;;;;5.93;1.88;;;;;;;2.70;100.00;99681.09;5002262;28;20088;-63
2023/12/24 04:51:15;;;;;;;4.93;1.80;;;;;;;2.71;100.00;99673.38;4995311;28;20482;-64
2023/12/24 04:53:41;;;;;;;5.80;1.98;;;;;;;2.75;100.00;99675.31;5001447;28;20207;-62
2023/12/24 04:56:18;;;;;;;5.10;2.03;;;;;;;2.78;100.00;99679.78;4991516;28;20046;-62
2023/12/24 04:58:43;;;;;;;6.73;2.10;;;;;;;2.80;100.00;99681.69;5004358;28;20030;-67
2023/12/24 05:01:08;;;;;;;6.35;1.98;;;;;;;2.82;100.00;99686.94;5007201;28;20095;-63
2023/12/24 05:03:34;;;;;;;5.17;1.80;;;;;;;2.87;100.00;99675.06;4957558;28;20262;-65
2023/12/24 05:05:59;;;;;;;7.73;2.27;;;;;;;2.88;100.00;99680.38;5026876;28;20040;-63
2023/12/24 05:08:25;;;;;;;6.27;1.90;;;;;;;2.92;100.00;99671.88;5029809;28;20187;-63
2023/12/24 05:10:50;;;;;;;6.20;2.23;;;;;;;2.96;100.00;99667.75;5028753;28;20029;-63
2023/12/24 05:13:15;;;;;;;5.20;1.80;;;;;;;2.98;100.00;99669.63;5016929;28;20375;-65
2023/12/24 05:15:41;;;;;;;6.23;2.00;;;;;;;3.02;100.00;99675.88;5019323;28;20036;-64
2023/12/24 05:18:06;;;;;;;5.93;2.03;;;;;;;3.08;100.00;99675.31;5031867;28;20112;-64
2023/12/24 05:20:32;;;;;;;5.47;2.00;;;;;;;3.12;100.00;99667.72;5022791;28;20071;-64
2023/12/24 05:22:57;;;;;;;5.30;1.67;;;;;;;3.18;100.00;99668.06;5030520;28;20397;-64
2023/12/24 05:25:23;;;;;;;6.47;2.37;;;;;;;3.20;100.00;99676.88;5030068;28;20045;-63
2023/12/24 05:27:48;;;;;;;7.63;2.20;;;;;;;3.22;100.00;99671.72;5030331;28;20460;-63
2023/12/24 05:30:14;;;;;;;5.60;1.93;;;;;;;3.25;100.00;99671.91;5029575;28;20283;-64
2023/12/24 05:32:39;;;;;;;6.10;1.93;;;;;;;3.29;100.00;99655.59;5026468;28;20127;-63
2023/12/24 05:35:05;;;;;;;6.37;2.20;;;;;;;3.36;100.00;99652.44;5030228;28;20514;-63
2023/12/24 05:37:31;;;;;;;7.60;2.40;;;;;;;3.38;100.00;99661.28;5031161;28;20056;-64
2023/12/24 05:39:56;;;;;;;5.87;1.97;;;;;;;3.40;100.00;99660.50;5031303;28;20505;-64
2023/12/24 05:42:22;;;;;;;5.53;1.93;;;;;;;3.43;100.00;99651.97;5031600;28;20120;-63
2023/12/24 05:44:47;;;;;;;4.97;1.77;;;;;;;3.48;100.00;99648.78;5030612;28;20311;-62
2023/12/24 05:47:12;;;;;;;5.10;1.50;;;;;;;3.51;100.00;99648.03;5029075;28;20112;-62
2023/12/24 05:49:38;;;;;;;5.43;1.60;;;;;;;3.55;100.00;99638.66;5019349;28;20120;-63
2023/12/24 05:52:03;;;;;;;4.73;1.37;;;;;;;3.58;100.00;99641.41;5031379;28;20060;-63
2023/12/24 05:54:29;;;;;;;4.47;1.55;;;;;;;3.62;100.00;99646.88;5014834;28;20450;-63
2023/12/24 05:56:54;;;;;;;5.43;1.70;;;;;;;3.70;100.00;99640.28;5031248;28;20041;-62
2023/12/24 05:59:19;;;;;;;5.30;1.90;;;;;;;3.72;100.00;99640.38;5027277;28;20413;-63
2023/12/24 06:01:45;;;;;;;5.37;1.50;;;;;;;3.77;100.00;99642.41;5025096;28;20029;-63
2023/12/24 06:04:10;;;;;;;5.37;1.30;;;;;;;3.83;100.00;99644.44;5031366;28;20115;-63
2023/12/24 06:06:42;;;;;;;5.38;1.63;;;;;;;3.90;100.00;99636.97;5031336;28;20029;-63
2023/12/24 06:09:08;;;;;;;5.27;1.60;;;;;;;4.00;100.00;99646.16;5030405;28;20056;-63
2023/12/24 06:11:33;;;;;;;4.85;1.38;;;;;;;4.10;100.00;99639.66;5023324;28;20390;-62
2023/12/24 06:13:58;;;;;;;5.97;1.70;;;;;;;4.20;100.00;99639.28;5030819;28;20048;-61
2023/12/24 06:16:24;;;;;;;6.23;1.63;;;;;;;4.27;100.00;99630.91;5030548;28;20033;-62
2023/12/24 06:18:49;;;;;;;5.37;1.27;;;;;;;4.37;100.00;99638.38;5030453;28;20129;-62
2023/12/24 06:21:15;;;;;;;3.30;0.80;;;;;;;4.52;100.00;99639.09;5028631;28;20303;-61
2023/12/24 06:23:40;;;;;;;3.97;0.90;;;;;;;4.73;100.00;99631.38;5030783;28;20033;-63
2023/12/24 06:26:05;;;;;;;2.63;0.53;;;;;;;5.09;100.00;99625.16;5028893;28;20061;-63
2023/12/24 06:28:31;;;;;;;3.50;0.90;;;;;;;5.49;100.00;99621.66;5030487;28;20034;-66
2023/12/24 06:30:56;;;;;;;2.57;0.50;;;;;;;5.85;100.00;99625.84;5030473;28;20068;-63
2023/12/24 06:33:21;;;;;;;2.47;0.50;;;;;;;6.12;100.00;99626.09;5030506;28;20816;-63
2023/12/24 06:35:47;;;;;;;2.07;0.40;;;;;;;6.38;100.00;99621.91;5024083;28;20132;-62
2023/12/24 06:38:12;;;;;;;2.73;0.63;;;;;;;6.76;100.00;99631.28;5026700;28;20582;-63
2023/12/24 06:40:38;;;;;;;2.60;0.60;;;;;;;7.04;100.00;99620.97;5023190;28;20037;-63
2023/12/24 06:43:03;;;;;;;3.45;0.80;;;;;;;7.23;100.00;99631.28;5012725;28;20465;-64
2023/12/24 06:45:28;;;;;;;2.73;0.63;;;;;;;7.36;100.00;99617.75;5021524;28;20456;-63
2023/12/24 06:47:54;;;;;;;3.40;0.70;;;;;;;7.45;100.00;99616.31;5028332;28;20112;-63
2023/12/24 06:50:20;;;;;;;2.90;0.70;;;;;;;7.54;100.00;99614.88;5019767;28;20406;-64
2023/12/24 06:52:45;;;;;;;3.70;1.00;;;;;;;7.64;100.00;99616.09;5029982;28;20033;-64
2023/12/24 06:55:12;;;;;;;3.00;0.70;;;;;;;7.74;100.00;99615.56;5029666;28;20091;-63
2023/12/24 06:57:37;;;;;;;3.67;0.90;;;;;;;7.85;100.00;99615.91;5030173;28;20029;-63
2023/12/24 07:00:05;;;;;;;3.10;0.70;;;;;;;7.94;100.00;99614.50;5020677;28;20110;-63
2023/12/24 07:02:30;;;;;;;3.20;0.60;;;;;;;8.00;100.00;99609.44;5013564;28;20037;-63
2023/12/24 07:07:14;;;;;;;3.20;0.70;;;;;;;8.10;100.00;99608.88;5107243;27;20429;-65
2023/12/24 07:09:40;;;;;;;5.27;0.93;;;;;;;8.14;100.00;99609.91;5101474;28;20019;-63
2023/12/24 07:12:05;;;;;;;4.68;1.05;;;;;;;8.20;100.00;99615.34;5107188;28;20110;-65
2023/12/24 07:14:31;;;;;;;3.07;0.67;;;;;;;8.27;100.00;99614.72;5106892;28;20093;-64
2023/12/24 07:16:56;;;;;;;3.80;0.93;;;;;;;8.34;100.00;99607.94;5106608;28;20047;-65
2023/12/24 07:19:22;;;;;;;4.32;0.90;;;;;;;8.39;100.00;99608.94;5088477;28;20231;-64
2023/12/24 07:21:47;;;;;;;3.33;0.90;;;;;;;8.41;100.00;99604.66;5106963;28;20128;-63
2023/12/24 07:24:12;;;;;;;4.33;1.00;;;;;;;8.42;100.00;99595.91;5106678;28;20122;-63
2023/12/24 07:26:38;;;;;;;3.30;0.70;;;;;;;8.47;100.00;99602.22;5106876;28;20174;-62
2023/12/24 07:29:03;;;;;;;4.87;1.30;;;;;;;8.49;100.00;99589.97;5106719;28;20123;-64
2023/12/24 07:31:28;;;;;;;4.03;1.10;;;;;;;8.52;100.00;99588.34;5106644;28;20036;-64
2023/12/24 07:33:54;;;;;;;3.80;0.90;;;;;;;8.52;100.00;99593.63;5106485;28;20107;-65
2023/12/24 07:36:19;;;;;;;3.80;1.10;;;;;;;8.57;100.00;99597.28;5106669;28;20047;-63
2023/12/24 07:38:45;;;;;;;3.90;1.20;;;;;;;8.63;100.00;99602.72;5106663;28;20028;-64
2023/12/24 07:41:10;;;;;;;4.83;1.10;;;;;;;8.67;100.00;99601.09;5106856;28;20627;-64
2023/12/24 07:43:35;;;;;;;4.15;1.27;;;;;;;8.70;100.00;99603.78;5108476;28;20069;-64
2023/12/24 07:46:01;;;;;;;4.60;1.20;;;;;;;8.72;100.00;99601.22;5109633;28;20480;-63
2023/12/24 07:48:26;;;;;;;4.67;1.60;;;;;;;8.75;100.00;99596.03;5107216;28;20119;-63
2023/12/24 07:50:51;;;;;;;4.73;1.43;;;;;;;8.78;100.00;99607.53;5106558;28;20510;-64
2023/12/24 07:53:17;;;;;;;4.47;1.50;;;;;;;8.79;100.00;99605.78;5112826;28;20119;-62
2023/12/24 07:55:42;;;;;;;4.20;1.50;;;;;;;8.80;100.00;99604.97;5106643;28;20437;-61
2023/12/24 07:58:08;;;;;;;4.23;1.40;;;;;;;8.81;100.00;99615.53;5106306;28;20036;-63
2023/12/24 08:00:33;;;;;;;4.40;1.50;;;;;;;8.83;100.00;99608.56;5109765;28;20035;-62
2023/12/24 08:02:59;;;;;;;5.75;1.60;;;;;;;8.86;100.00;99608.69;5088170;28;20376;-62
2023/12/24 08:05:24;;;;;;;4.57;1.60;;;;;;;8.91;100.00;99596.53;5105471;28;20123;-62
2023/12/24 08:07:49;;;;;;;4.50;1.30;;;;;;;8.95;100.00;99594.88;5106752;28;20407;-65
2023/12/24 08:10:15;;;;;;;6.27;1.30;;;;;;;8.98;100.00;99602.84;5106223;28;20046;-63
2023/12/24 08:12:40;;;;;;;4.13;1.60;;;;;;;9.01;100.00;99597.69;5106182;28;20373;-63
2023/12/24 08:15:06;;;;;;;4.60;1.53;;;;;;;9.03;100.00;99595.97;5106112;28;20127;-63
2023/12/24 08:17:32;;;;;;;5.30;1.90;;;;;;;9.02;100.00;99600.38;5100167;28;20028;-63
2023/12/24 08:19:57;;;;;;;5.43;1.40;;;;;;;9.04;100.00;99593.41;5092470;28;20032;-64
2023/12/24 08:22:22;;;;;;;4.63;1.70;;;;;;;9.08;100.00;99589.09;5092154;28;20059;-63
2023/12/24 08:24:49;;;;;;;6.70;1.70;;;;;;;9.10;100.00;99587.41;5092464;28;20103;-63
2023/12/24 08:27:14;;;;;;;5.28;1.80;;;;;;;9.13;100.00;99591.91;5092928;28;20076;-62
2023/12/24 08:29:40;;;;;;;4.83;1.70;;;;;;;9.13;100.00;99597.16;5081730;28;20133;-62
2023/12/24 08:32:05;;;;;;;5.43;1.88;;;;;;;9.12;100.00;99592.75;5064771;28;20115;-65
2023/12/24 08:34:31;;;;;;;4.73;1.70;;;;;;;9.13;100.00;99595.38;5087309;28;20442;-64
2023/12/24 08:36:56;;;;;;;4.80;1.53;;;;;;;9.13;100.00;99587.50;5089522;28;20024;-64
2023/12/24 08:39:21;;;;;;;8.23;1.60;;;;;;;9.18;100.00;99603.41;5090347;28;20443;-63
2023/12/24 08:41:47;;;;;;;5.07;1.80;;;;;;;9.20;100.00;99594.72;5091993;28;20409;-65
2023/12/24 08:44:12;;;;;;;4.27;1.40;;;;;;;9.21;100.00;99596.53;5091149;28;20056;-64
2023/12/24 08:46:38;;;;;;;4.03;1.27;;;;;;;9.22;100.00;99589.50;5084459;28;20035;-65
2023/12/24 08:49:03;;;;;;;4.53;1.17;;;;;;;9.23;100.00;99579.00;5091748;28;20396;-64
2023/12/24 08:51:29;;;;;;;4.30;1.60;;;;;;;9.25;100.00;99587.84;5091924;28;20369;-64
2023/12/24 08:53:54;;;;;;;5.47;1.50;;;;;;;9.27;100.00;99580.00;5091749;28;20652;-65
2023/12/24 08:56:19;;;;;;;4.93;1.90;;;;;;;9.27;100.00;99598.44;5091695;28;20034;-64
2023/12/24 08:58:45;;;;;;;6.57;1.50;;;;;;;9.29;100.00;99594.97;5091072;28;20597;-64
2023/12/24 09:01:10;;;;;;;6.73;1.20;;;;;;;9.29;100.00;99594.09;5092738;28;20377;-63
2023/12/24 09:03:35;;;;;;;4.10;1.03;;;;;;;9.33;100.00;99595.94;5085389;28;20388;-63
2023/12/24 09:06:01;;;;;;;4.03;1.27;;;;;;;9.34;100.00;99593.34;5090832;28;20187;-63
2023/12/24 09:08:26;;;;;;;5.83;1.13;;;;;;;9.34;100.00;99590.72;5091417;28;20031;-65
2023/12/24 09:10:52;;;;;;;3.92;1.10;;;;;;;9.35;100.00;99579.34;5091430;28;20028;-62
2023/12/24 09:13:17;;;;;;;4.30;1.03;;;;;;;9.36;100.00;99586.41;5091795;28;20121;-63
2023/12/24 09:15:42;;;;;;;3.50;0.93;;;;;;;9.40;100.00;99600.53;5091331;28;20032;-62
2023/12/24 09:18:08;;;;;;;2.97;0.77;;;;;;;9.39;100.00;99585.56;5091417;28;20039;-63
2023/12/24 09:20:33;;;;;;;4.77;1.03;;;;;;;9.40;100.00;99587.38;5091185;28;20042;-63
2023/12/24 09:22:58;;;;;;;3.65;0.95;;;;;;;9.38;100.00;99587.31;5091437;28;20028;-63
2023/12/24 09:25:24;;;;;;;4.10;0.80;;;;;;;9.38;100.00;99584.69;5090768;28;20130;-64
2023/12/24 09:27:49;;;;;;;3.97;0.97;;;;;;;9.41;100.00;99594.44;5091427;28;20400;-63
2023/12/24 09:30:15;;;;;;;3.17;0.60;;;;;;;9.40;100.00;99590.00;5089412;28;20050;-64
2023/12/24 09:34:52;;;;;;;3.77;0.80;;;;;;;9.48;100.00;99593.72;5066641;28;20403;-65
2023/12/24 09:37:18;;;;;;;2.60;0.60;;;;;;;9.48;100.00;99588.44;5061603;28;20112;-64
2023/12/24 09:39:43;;;;;;;4.00;0.90;;;;;;;9.47;100.00;99590.19;5058342;28;20288;-64
2023/12/24 09:42:08;;;;;;;4.40;0.70;;;;;;;9.49;100.00;99585.88;5045770;28;20092;-64
2023/12/24 09:44:34;;;;;;;2.90;0.60;;;;;;;9.49;100.00;99577.97;5045468;28;20248;-63
2023/12/24 09:47:00;;;;;;;3.33;0.80;;;;;;;9.53;100.00;99581.56;5046264;28;20503;-63
2023/12/24 09:49:25;;;;;;;2.60;0.50;;;;;;;9.55;100.00;99590.41;5045428;28;20112;-63
2023/12/24 09:51:52;;;;;;;2.53;0.43;;;;;;;9.56;100.00;99573.75;5046796;28;20163;-63
2023/12/24 09:54:18;;;;;;;2.42;0.50;;;;;;;9.56;100.00;99571.13;5045966;28;20037;-63
2023/12/24 09:56:43;;;;;;;2.73;0.50;;;;;;;9.60;100.00;99572.09;5046362;28;20635;-63
2023/12/24 09:59:08;;;;;;;2.67;0.50;;;;;;;9.60;100.00;99569.44;5047521;28;20384;-63
2023/12/24 10:01:44;;;;;;;3.13;0.70;;;;;;;9.62;100.00;99579.16;5046606;28;20120;-63
2023/12/24 10:04:10;;;;;;;3.10;0.50;;;;;;;9.63;100.00;99573.03;5045418;28;20041;-63
2023/12/24 10:06:58;;;;;;;3.60;0.90;;;;;;;9.59;100.00;99567.66;5045687;28;20500;-63
2023/12/24 10:09:49;;;;;;;2.88;0.50;;;;;;;9.58;100.00;99571.13;5045263;28;20041;-63
2023/12/24 10:12:15;;;;;;;2.80;0.60;;;;;;;9.56;100.00;99568.47;5046173;28;20699;-63
2023/12/24 10:14:52;;;;;;;1.65;0.30;;;;;;;9.57;100.00;99550.94;5044577;28;20078;-62
2023/12/24 10:17:27;;;;;;;2.55;0.47;;;;;;;9.54;100.00;99544.72;5045917;28;20043;-62
2023/12/24 10:19:52;;;;;;;2.23;0.40;;;;;;;9.55;100.00;99542.97;5045948;28;20059;-63
2023/12/24 10:22:23;;;;;;;2.60;0.52;;;;;;;9.56;100.00;99542.13;5046031;28;20033;-62
2023/12/24 10:24:48;;;;;;;2.97;0.57;;;;;;;9.59;100.00;99542.19;5046007;28;20052;-64
2023/12/24 10:27:15;;;;;;;2.13;0.47;;;;;;;9.61;100.00;99553.69;5046212;28;20097;-64
2023/12/24 10:29:42;;;;;;;2.07;0.40;;;;;;;9.66;100.00;99549.41;5046095;28;20303;-63
2023/12/24 10:32:10;;;;;;;1.30;0.30;;;;;;;9.70;100.00;99555.66;5045668;28;20041;-64
2023/12/24 10:34:37;;;;;;;3.22;0.43;;;;;;;9.71;100.00;99558.34;5045374;28;20033;-64
2023/12/24 10:37:19;;;;;;;2.20;0.43;;;;;;;9.75;100.00;99554.91;5045274;28;20036;-64
2023/12/24 10:39:45;;;;;;;2.08;0.38;;;;;;;9.77;100.00;99545.28;5045907;28;20041;-61
2023/12/24 10:42:10;;;;;;;1.93;0.30;;;;;;;9.82;100.00;99548.03;5045733;28;20099;-61
2023/12/24 10:44:36;;;;;;;2.33;0.40;;;;;;;9.83;100.00;99542.81;5041595;28;20021;-63
2023/12/24 10:47:03;;;;;;;2.40;0.40;;;;;;;9.87;100.00;99555.22;5032167;28;20039;-62
2023/12/24 10:49:28;;;;;;;1.58;0.30;;;;;;;9.90;100.00;99544.75;5030813;28;20099;-65
2023/12/24 10:51:56;;;;;;;2.00;0.40;;;;;;;9.93;100.00;99536.91;5032367;28;20503;-64
2023/12/24 10:54:22;;;;;;;2.58;0.45;;;;;;;9.95;100.00;99537.84;5032099;28;20540;-64
2023/12/24 10:57:02;;;;;;;1.55;0.22;;;;;;;9.97;100.00;99519.41;5032283;28;20546;-65
2023/12/24 10:59:54;;;;;;;3.88;0.70;;;;;;;10.00;100.00;99516.84;5033407;28;20029;-62
2023/12/24 11:02:20;;;;;;;4.63;0.90;;;;;;;10.03;100.00;99529.19;5030114;28;20041;-63
2023/12/24 11:04:47;;;;;;;1.92;0.30;;;;;;;10.05;100.00;99519.59;5032257;28;20045;-62
2023/12/24 11:07:34;;;;;;;1.75;0.40;;;;;;;10.08;100.00;99509.09;5032221;28;20049;-64
2023/12/24 11:10:06;;;;;;;1.58;0.20;;;;;;;10.10;100.00;99523.22;5032131;28;20029;-63
2023/12/24 11:12:32;;;;;;;1.30;0.28;;;;;;;10.12;100.00;99508.31;5032582;28;20046;-67
2023/12/24 11:14:58;;;;;;;1.00;0.20;;;;;;;10.15;100.00;99511.03;5030877;28;20521;-64
2023/12/24 11:17:36;;;;;;;1.98;0.40;;;;;;;10.16;100.00;99520.78;5032065;28;20095;-66
2023/12/24 11:20:24;;;;;;;3.40;0.50;;;;;;;10.17;100.00;99498.78;5032164;28;20131;-61
2023/12/24 11:23:04;;;;;;;2.05;0.30;;;;;;;10.19;100.00;99505.91;5031858;28;20108;-65
2023/12/24 11:25:40;;;;;;;2.78;0.47;;;;;;;10.22;100.00;99498.03;5031049;28;20061;-64
2023/12/24 11:28:09;;;;;;;2.40;0.40;;;;;;;10.24;100.00;99493.69;5030984;28;20054;-64
2023/12/24 11:30:57;;;;;;;2.15;0.30;;;;;;;10.25;100.00;99497.22;5031475;28;20128;-65
2023/12/24 11:33:28;;;;;;;1.45;0.30;;;;;;;10.24;100.00;99496.34;5031420;28;20643;-63
2023/12/24 11:36:01;;;;;;;2.53;0.40;;;;;;;10.23;100.00;99491.00;5032078;28;20065;-63